createdAt,value
2023-03-27T00:00:47.944Z,3.36
2023-03-27T00:01:49.674Z,3.33
2023-03-27T00:02:51.740Z,3.31
2023-03-27T00:03:53.162Z,3.3
2023-03-27T00:04:54.861Z,3.27
2023-03-27T00:05:56.554Z,3.27
2023-03-27T00:06:58.281Z,3.24
2023-03-27T00:08:00.046Z,3.23
2023-03-27T00:09:01.760Z,3.2
2023-03-27T00:10:03.948Z,3.19
2023-03-27T00:11:05.233Z,3.19
2023-03-27T00:12:07.027Z,3.17
2023-03-27T00:13:08.720Z,3.13
2023-03-27T00:14:10.421Z,3.12
2023-03-27T00:15:12.327Z,3.1
2023-03-27T00:16:14.198Z,3.07
2023-03-27T00:17:15.629Z,3.04
2023-03-27T00:18:17.385Z,3.01
2023-03-27T00:19:19.184Z,2.98
2023-03-27T00:20:20.845Z,2.94
2023-03-27T00:21:22.625Z,2.9
2023-03-27T00:22:24.319Z,2.88
2023-03-27T00:23:26.018Z,2.83
2023-03-27T00:24:27.761Z,2.8
2023-03-27T00:25:29.483Z,2.79
2023-03-27T00:26:31.511Z,2.72
2023-03-27T00:27:32.952Z,2.67
2023-03-27T00:28:34.913Z,2.65
2023-03-27T00:29:36.418Z,2.6
2023-03-27T00:30:38.542Z,2.58
2023-03-27T00:31:39.985Z,2.56
2023-03-27T00:32:41.665Z,2.56
2023-03-27T00:33:43.357Z,2.54
2023-03-27T00:34:45.096Z,2.5
2023-03-27T00:35:46.996Z,2.5
2023-03-27T00:36:48.561Z,2.47
2023-03-27T00:37:50.302Z,2.45
2023-03-27T00:38:52.030Z,2.42
2023-03-27T00:39:53.760Z,2.42
2023-03-27T00:40:55.857Z,2.4
2023-03-27T00:41:57.765Z,2.39
2023-03-27T00:42:58.952Z,2.37
2023-03-27T00:44:00.714Z,2.35
2023-03-27T00:45:02.491Z,2.34
2023-03-27T00:46:04.181Z,2.32
2023-03-27T00:47:05.865Z,2.3
2023-03-27T00:48:07.725Z,2.28
2023-03-27T00:49:09.307Z,2.25
2023-03-27T00:50:11.240Z,2.23
2023-03-27T00:51:13.298Z,2.21
2023-03-27T00:52:14.478Z,2.17
2023-03-27T00:53:16.233Z,2.15
2023-03-27T00:54:17.939Z,2.12
2023-03-27T00:55:19.695Z,2.1
2023-03-27T00:56:21.436Z,2.07
2023-03-27T00:57:23.128Z,2.04
2023-03-27T00:58:24.890Z,2.01
2023-03-27T00:59:26.656Z,1.98
2023-03-27T01:00:28.354Z,1.95
2023-03-27T01:01:30.227Z,1.93
2023-03-27T01:02:31.906Z,1.9
2023-03-27T01:03:33.632Z,1.86
2023-03-27T01:04:35.320Z,1.84
2023-03-27T01:05:37.003Z,1.82
2023-03-27T01:06:38.759Z,1.78
2023-03-27T01:07:40.464Z,1.76
2023-03-27T01:08:42.194Z,1.73
2023-03-27T01:09:43.943Z,1.7
2023-03-27T01:10:45.692Z,1.67
2023-03-27T01:11:47.419Z,1.64
2023-03-27T01:12:49.140Z,1.6
2023-03-27T01:13:50.861Z,1.59
2023-03-27T01:14:52.626Z,1.55
2023-03-27T01:15:54.368Z,1.53
2023-03-27T01:16:56.068Z,1.5
2023-03-27T01:17:57.853Z,1.47
2023-03-27T01:18:59.543Z,1.46
2023-03-27T01:20:01.289Z,1.43
2023-03-27T01:21:03.024Z,1.4
2023-03-27T01:22:04.743Z,1.39
2023-03-27T01:23:06.467Z,1.36
2023-03-27T01:24:08.220Z,1.33
2023-03-27T01:25:09.942Z,1.33
2023-03-27T01:26:11.674Z,1.33
2023-03-27T01:27:13.415Z,1.3
2023-03-27T01:28:15.141Z,1.28
2023-03-27T01:29:16.898Z,1.25
2023-03-27T01:30:18.622Z,1.23
2023-03-27T01:31:20.384Z,1.21
2023-03-27T01:32:22.123Z,1.21
2023-03-27T01:33:23.857Z,1.2
2023-03-27T01:34:25.534Z,1.18
2023-03-27T01:35:27.317Z,1.16
2023-03-27T01:36:29.037Z,1.15
2023-03-27T01:37:30.798Z,1.13
2023-03-27T01:38:32.476Z,1.12
2023-03-27T01:39:34.232Z,1.1
2023-03-27T01:40:35.946Z,1.11
2023-03-27T01:41:37.688Z,1.1
2023-03-27T01:42:39.408Z,1.09
2023-03-27T01:43:41.143Z,1.08
2023-03-27T01:44:43.648Z,1.08
2023-03-27T01:45:44.628Z,1.07
2023-03-27T01:46:46.401Z,1.07
2023-03-27T01:47:48.116Z,1.05
2023-03-27T01:48:49.932Z,1.04
2023-03-27T01:49:51.541Z,1.02
2023-03-27T01:50:53.295Z,1.01
2023-03-27T01:51:55.036Z,0.99
2023-03-27T01:52:56.757Z,0.99
2023-03-27T01:53:58.472Z,0.97
2023-03-27T01:55:00.224Z,0.95
2023-03-27T01:56:01.935Z,0.94
2023-03-27T01:57:03.694Z,0.93
2023-03-27T01:58:05.416Z,0.91
2023-03-27T01:59:07.161Z,0.92
2023-03-27T02:00:18.133Z,0.91
2023-03-27T02:01:10.964Z,0.91
2023-03-27T02:02:12.372Z,0.9
2023-03-27T02:03:14.099Z,0.9
2023-03-27T02:04:15.832Z,0.89
2023-03-27T02:05:17.589Z,0.89
2023-03-27T02:06:19.302Z,0.9
2023-03-27T02:07:21.241Z,0.9
2023-03-27T02:08:22.794Z,0.89
2023-03-27T02:09:24.513Z,0.91
2023-03-27T02:10:26.209Z,0.95
2023-03-27T02:11:27.950Z,0.94
2023-03-27T02:12:29.681Z,0.94
2023-03-27T02:13:31.413Z,0.93
2023-03-27T02:14:33.144Z,0.94
2023-03-27T02:15:34.887Z,0.93
2023-03-27T02:16:36.625Z,0.92
2023-03-27T02:17:38.353Z,0.92
2023-03-27T02:18:40.088Z,0.9
2023-03-27T02:19:41.813Z,0.89
2023-03-27T02:20:43.539Z,0.88
2023-03-27T02:21:45.285Z,0.87
2023-03-27T02:22:47.006Z,0.86
2023-03-27T02:23:48.739Z,0.84
2023-03-27T02:24:50.472Z,0.84
2023-03-27T02:25:52.205Z,0.82
2023-03-27T02:26:53.956Z,0.81
2023-03-27T02:27:55.681Z,0.8
2023-03-27T02:28:57.409Z,0.78
2023-03-27T02:29:59.135Z,0.77
2023-03-27T02:31:06.269Z,0.77
2023-03-27T02:32:02.649Z,0.76
2023-03-27T02:33:04.503Z,0.77
2023-03-27T02:34:06.101Z,0.77
2023-03-27T02:35:07.819Z,0.77
2023-03-27T02:36:11.216Z,0.77
2023-03-27T02:37:11.323Z,0.78
2023-03-27T02:38:13.117Z,0.77
2023-03-27T02:39:14.757Z,0.77
2023-03-27T02:40:16.495Z,0.76
2023-03-27T02:41:18.406Z,0.76
2023-03-27T02:42:19.974Z,0.74
2023-03-27T02:43:21.694Z,0.74
2023-03-27T02:44:23.441Z,0.7
2023-03-27T02:45:25.141Z,0.7
2023-03-27T02:46:26.924Z,0.68
2023-03-27T02:47:28.768Z,0.67
2023-03-27T02:48:30.359Z,0.68
2023-03-27T02:49:32.080Z,0.66
2023-03-27T02:50:33.833Z,0.67
2023-03-27T02:51:35.588Z,0.66
2023-03-27T02:52:37.295Z,0.66
2023-03-27T02:53:39.016Z,0.65
2023-03-27T02:54:40.751Z,0.65
2023-03-27T02:55:42.496Z,0.65
2023-03-27T02:56:44.255Z,0.65
2023-03-27T02:57:51.823Z,0.64
2023-03-27T02:58:47.691Z,0.63
2023-03-27T02:59:49.416Z,0.62
2023-03-27T03:00:51.181Z,0.61
2023-03-27T03:01:52.928Z,0.62
2023-03-27T03:02:54.754Z,0.63
2023-03-27T03:03:56.366Z,0.65
2023-03-27T03:04:58.079Z,0.64
2023-03-27T03:05:59.823Z,0.65
2023-03-27T03:07:01.553Z,0.64
2023-03-27T03:08:03.300Z,0.64
2023-03-27T03:09:05.032Z,0.64
2023-03-27T03:10:07.933Z,0.64
2023-03-27T03:11:08.482Z,0.64
2023-03-27T03:12:10.234Z,0.64
2023-03-27T03:13:11.959Z,0.65
2023-03-27T03:14:13.711Z,0.65
2023-03-27T03:15:15.433Z,0.65
2023-03-27T03:16:17.221Z,0.65
2023-03-27T03:17:18.894Z,0.64
2023-03-27T03:18:20.628Z,0.64
2023-03-27T03:19:22.363Z,0.62
2023-03-27T03:20:24.109Z,0.63
2023-03-27T03:21:25.816Z,0.62
2023-03-27T03:22:27.587Z,0.59
2023-03-27T03:23:29.296Z,0.59
2023-03-27T03:24:31.016Z,0.57
2023-03-27T03:25:32.752Z,0.56
2023-03-27T03:26:34.664Z,0.53
2023-03-27T03:27:36.227Z,0.51
2023-03-27T03:28:37.983Z,0.49
2023-03-27T03:29:39.690Z,0.46
2023-03-27T03:30:41.427Z,0.44
2023-03-27T03:31:43.718Z,0.43
2023-03-27T03:32:44.952Z,0.42
2023-03-27T03:33:46.621Z,0.42
2023-03-27T03:34:48.378Z,0.4
2023-03-27T03:35:50.187Z,0.39
2023-03-27T03:36:51.819Z,0.39
2023-03-27T03:37:53.562Z,0.39
2023-03-27T03:38:55.301Z,0.38
2023-03-27T03:39:57.038Z,0.38
2023-03-27T03:40:59.108Z,0.38
2023-03-27T03:42:00.503Z,0.38
2023-03-27T03:43:02.223Z,0.39
2023-03-27T03:44:03.968Z,0.38
2023-03-27T03:45:05.678Z,0.39
2023-03-27T03:46:07.501Z,0.38
2023-03-27T03:47:09.178Z,0.38
2023-03-27T03:48:10.903Z,0.38
2023-03-27T03:49:12.624Z,0.39
2023-03-27T03:50:14.360Z,0.39
2023-03-27T03:51:16.101Z,0.39
2023-03-27T03:52:17.837Z,0.39
2023-03-27T03:53:19.552Z,0.38
2023-03-27T03:54:21.312Z,0.39
2023-03-27T03:55:23.010Z,0.38
2023-03-27T03:56:24.757Z,0.39
2023-03-27T03:57:26.488Z,0.38
2023-03-27T03:58:34.676Z,0.38
2023-03-27T03:59:29.925Z,0.37
2023-03-27T04:00:31.664Z,0.36
2023-03-27T04:01:33.395Z,0.34
2023-03-27T04:02:35.252Z,0.34
2023-03-27T04:03:36.917Z,0.33
2023-03-27T04:04:38.559Z,0.32
2023-03-27T04:05:40.274Z,0.31
2023-03-27T04:06:41.979Z,0.31
2023-03-27T04:07:43.719Z,0.29
2023-03-27T04:08:45.457Z,0.29
2023-03-27T04:09:47.172Z,0.28
2023-03-27T04:10:48.890Z,0.26
2023-03-27T04:11:50.627Z,0.26
2023-03-27T04:12:52.363Z,0.26
2023-03-27T04:13:54.056Z,0.26
2023-03-27T04:14:55.791Z,0.26
2023-03-27T04:15:57.556Z,0.27
2023-03-27T04:16:59.235Z,0.26
2023-03-27T04:18:01.055Z,0.27
2023-03-27T04:19:02.695Z,0.26
2023-03-27T04:20:04.393Z,0.28
2023-03-27T04:21:06.123Z,0.26
2023-03-27T04:22:07.857Z,0.27
2023-03-27T04:23:09.571Z,0.27
2023-03-27T04:24:11.305Z,0.27
2023-03-27T04:25:13.036Z,0.27
2023-03-27T04:26:14.816Z,0.28
2023-03-27T04:27:16.495Z,0.27
2023-03-27T04:28:18.238Z,0.29
2023-03-27T04:29:19.960Z,0.29
2023-03-27T04:30:21.705Z,0.28
2023-03-27T04:31:23.491Z,0.26
2023-03-27T04:32:25.228Z,0.27
2023-03-27T04:33:30.703Z,0.25
2023-03-27T04:34:28.633Z,0.24
2023-03-27T04:35:30.364Z,0.24
2023-03-27T04:36:32.136Z,0.23
2023-03-27T04:37:33.840Z,0.22
2023-03-27T04:38:35.629Z,0.22
2023-03-27T04:39:38.768Z,0.22
2023-03-27T04:40:39.039Z,0.22
2023-03-27T04:42:25.684Z,0.21
2023-03-27T04:43:30.141Z,0.21
2023-03-27T04:44:31.871Z,0.2
2023-03-27T04:45:33.599Z,0.2
2023-03-27T04:46:35.397Z,0.19
2023-03-27T04:47:37.114Z,0.18
2023-03-27T04:48:39.427Z,0.16
2023-03-27T04:49:40.596Z,0.15
2023-03-27T04:50:42.292Z,0.14
2023-03-27T04:51:44.019Z,0.12
2023-03-27T04:52:45.746Z,0.11
2023-03-27T04:53:47.483Z,0.09
2023-03-27T04:54:49.226Z,0.07
2023-03-27T04:55:50.966Z,0.06
2023-03-27T04:56:52.748Z,0.03
2023-03-27T04:57:54.401Z,0.01
2023-03-27T04:58:56.124Z,0
2023-03-27T04:59:57.894Z,-0.03
2023-03-27T05:00:59.897Z,-0.06
2023-03-27T05:02:01.379Z,-0.08
2023-03-27T05:03:03.141Z,-0.12
2023-03-27T05:04:04.875Z,-0.13
2023-03-27T05:05:06.551Z,-0.15
2023-03-27T05:06:08.268Z,-0.19
2023-03-27T05:07:10.019Z,-0.21
2023-03-27T05:08:11.762Z,-0.23
2023-03-27T05:09:13.476Z,-0.24
2023-03-27T05:10:15.230Z,-0.26
2023-03-27T05:11:16.944Z,-0.27
2023-03-27T05:12:18.690Z,-0.3
2023-03-27T05:13:20.457Z,-0.31
2023-03-27T05:14:22.136Z,-0.31
2023-03-27T05:15:23.871Z,-0.31
2023-03-27T05:16:25.641Z,-0.31
2023-03-27T05:17:27.410Z,-0.32
2023-03-27T05:18:29.074Z,-0.3
2023-03-27T05:19:30.801Z,-0.3
2023-03-27T05:20:32.539Z,-0.3
2023-03-27T05:21:34.278Z,-0.29
2023-03-27T05:22:36.017Z,-0.29
2023-03-27T05:23:37.746Z,-0.27
2023-03-27T05:24:39.488Z,-0.26
2023-03-27T05:25:41.215Z,-0.25
2023-03-27T05:26:42.956Z,-0.24
2023-03-27T05:27:44.680Z,-0.23
2023-03-27T05:28:46.406Z,-0.22
2023-03-27T05:29:48.141Z,-0.21
2023-03-27T05:30:49.973Z,-0.19
2023-03-27T05:31:51.696Z,-0.19
2023-03-27T05:32:53.491Z,-0.18
2023-03-27T05:33:55.073Z,-0.18
2023-03-27T05:34:56.838Z,-0.16
2023-03-27T05:35:58.786Z,-0.15
2023-03-27T05:37:00.274Z,-0.12
2023-03-27T05:38:02.032Z,-0.12
2023-03-27T05:39:03.743Z,-0.1
2023-03-27T05:40:05.528Z,-0.08
2023-03-27T05:41:07.212Z,-0.07
2023-03-27T05:42:08.972Z,-0.05
2023-03-27T05:43:10.699Z,-0.04
2023-03-27T05:44:12.432Z,-0.04
2023-03-27T05:45:14.144Z,-0.01
2023-03-27T05:46:21.013Z,-0.01
2023-03-27T05:47:17.618Z,-0.01
2023-03-27T05:48:19.347Z,0
2023-03-27T05:49:21.072Z,0.02
2023-03-27T05:50:22.820Z,0.02
2023-03-27T05:51:24.544Z,0.03
2023-03-27T05:52:28.394Z,0.03
2023-03-27T05:53:29.053Z,0.04
2023-03-27T05:54:29.768Z,0.05
2023-03-27T05:55:31.484Z,0.06
2023-03-27T05:56:33.258Z,0.06
2023-03-27T05:57:34.950Z,0.07
2023-03-27T05:58:36.704Z,0.08
2023-03-27T05:59:38.429Z,0.1
2023-03-27T06:00:40.154Z,0.1
2023-03-27T06:01:41.882Z,0.11
2023-03-27T06:02:43.840Z,0.12
2023-03-27T06:03:45.562Z,0.12
2023-03-27T06:04:47.094Z,0.14
2023-03-27T06:05:48.835Z,0.14
2023-03-27T06:06:50.570Z,0.15
2023-03-27T06:07:52.296Z,0.17
2023-03-27T06:08:54.039Z,0.19
2023-03-27T06:09:55.773Z,0.19
2023-03-27T06:10:57.872Z,0.19
2023-03-27T06:11:59.249Z,0.2
2023-03-27T06:13:00.976Z,0.22
2023-03-27T06:14:02.718Z,0.23
2023-03-27T06:15:04.443Z,0.23
2023-03-27T06:16:06.258Z,0.25
2023-03-27T06:17:07.901Z,0.27
2023-03-27T06:18:09.702Z,0.28
2023-03-27T06:19:11.355Z,0.31
2023-03-27T06:20:13.145Z,0.33
2023-03-27T06:21:14.855Z,0.35
2023-03-27T06:22:16.574Z,0.38
2023-03-27T06:23:18.292Z,0.39
2023-03-27T06:24:20.072Z,0.43
2023-03-27T06:25:21.784Z,0.46
2023-03-27T06:26:23.502Z,0.49
2023-03-27T06:27:25.268Z,0.53
2023-03-27T06:28:26.977Z,0.55
2023-03-27T06:29:28.718Z,0.59
2023-03-27T06:30:30.516Z,0.61
2023-03-27T06:31:32.184Z,0.64
2023-03-27T06:32:33.947Z,0.67
2023-03-27T06:33:35.619Z,0.7
2023-03-27T06:34:37.360Z,0.73
2023-03-27T06:35:39.132Z,0.77
2023-03-27T06:36:40.822Z,0.8
2023-03-27T06:37:42.579Z,0.85
2023-03-27T06:38:44.288Z,0.87
2023-03-27T06:39:46.047Z,0.9
2023-03-27T06:40:47.779Z,0.93
2023-03-27T06:41:49.489Z,0.97
2023-03-27T06:42:51.235Z,1
2023-03-27T06:43:52.967Z,1.03
2023-03-27T06:44:54.689Z,1.05
2023-03-27T06:45:56.625Z,1.08
2023-03-27T06:46:58.253Z,1.12
2023-03-27T06:48:13.598Z,1.15
2023-03-27T06:49:01.633Z,1.17
2023-03-27T06:50:03.367Z,1.2
2023-03-27T06:51:05.100Z,1.23
2023-03-27T06:52:06.859Z,1.25
2023-03-27T06:53:19.498Z,1.28
2023-03-27T06:54:10.296Z,1.3
2023-03-27T06:55:14.890Z,1.33
2023-03-27T06:56:13.768Z,1.35
2023-03-27T06:57:15.840Z,1.37
2023-03-27T06:58:17.242Z,1.4
2023-03-27T06:59:18.968Z,1.43
2023-03-27T07:00:20.747Z,1.45
2023-03-27T07:01:22.528Z,1.48
2023-03-27T07:02:24.295Z,1.5
2023-03-27T07:03:26.045Z,1.54
2023-03-27T07:04:27.634Z,1.55
2023-03-27T07:05:29.468Z,1.59
2023-03-27T07:06:31.106Z,1.62
2023-03-27T07:07:32.847Z,1.65
2023-03-27T07:08:34.562Z,1.68
2023-03-27T07:09:37.891Z,1.71
2023-03-27T07:10:38.040Z,1.75
2023-03-27T07:11:39.772Z,1.78
2023-03-27T07:12:41.563Z,1.83
2023-03-27T07:13:43.214Z,1.86
2023-03-27T07:14:44.939Z,1.91
2023-03-27T07:15:46.646Z,1.96
2023-03-27T07:16:48.498Z,2.02
2023-03-27T07:17:50.188Z,2.1
2023-03-27T07:19:56.033Z,2.21
2023-03-27T07:22:48.507Z,2.59
2023-03-27T07:23:57.873Z,2.78
2023-03-27T07:25:03.990Z,2.91
2023-03-27T07:26:07.829Z,3.1
2023-03-27T07:27:08.476Z,3.25
2023-03-27T07:28:46.070Z,3.53
2023-03-27T07:29:46.468Z,3.7
2023-03-27T07:30:54.982Z,3.84
2023-03-27T07:32:02.761Z,4.06
2023-03-27T07:33:02.045Z,4.27
2023-03-27T07:34:18.007Z,4.48
2023-03-27T07:35:19.633Z,4.64
2023-03-27T07:36:21.345Z,4.85
2023-03-27T07:37:23.095Z,4.99
2023-03-27T07:38:24.847Z,5.11
2023-03-27T07:39:26.557Z,5.23
2023-03-27T07:40:38.981Z,5.34
2023-03-27T07:41:30.014Z,5.41
2023-03-27T07:42:31.767Z,5.47
2023-03-27T07:43:33.495Z,5.52
2023-03-27T07:44:35.250Z,5.59
2023-03-27T07:45:36.990Z,5.65
2023-03-27T07:46:38.694Z,5.67
2023-03-27T07:47:40.478Z,5.74
2023-03-27T07:48:42.176Z,5.76
2023-03-27T07:49:43.906Z,5.84
2023-03-27T07:50:45.769Z,5.89
2023-03-27T07:51:47.363Z,5.94
2023-03-27T07:52:49.124Z,6.07
2023-03-27T07:53:50.849Z,6.14
2023-03-27T07:54:52.591Z,6.11
2023-03-27T07:55:54.514Z,6.12
2023-03-27T07:56:56.119Z,6.16
2023-03-27T07:58:02.545Z,6.17
2023-03-27T07:58:59.581Z,6.27
2023-03-27T08:00:01.244Z,6.25
2023-03-27T08:01:02.970Z,6.29
2023-03-27T08:02:04.711Z,6.3
2023-03-27T08:03:06.664Z,6.36
2023-03-27T08:04:08.247Z,6.41
2023-03-27T08:05:10.248Z,6.47
2023-03-27T08:06:11.639Z,6.46
2023-03-27T08:07:13.351Z,6.49
2023-03-27T08:08:15.137Z,6.55
2023-03-27T08:09:16.874Z,6.58
2023-03-27T08:10:25.442Z,6.55
2023-03-27T08:11:30.630Z,6.68
2023-03-27T08:12:27.178Z,6.71
2023-03-27T08:13:28.930Z,6.66
2023-03-27T08:14:30.638Z,6.48
2023-03-27T08:15:32.400Z,6.5
2023-03-27T08:16:34.202Z,6.42
2023-03-27T08:17:35.952Z,6.36
2023-03-27T08:18:37.596Z,6.36
2023-03-27T08:19:39.330Z,6.18
2023-03-27T08:20:41.079Z,6.14
2023-03-27T08:21:42.777Z,6.23
2023-03-27T08:22:44.561Z,6.18
2023-03-27T08:23:46.276Z,6.2
2023-03-27T08:24:47.998Z,6.26
2023-03-27T08:25:49.715Z,6.35
2023-03-27T08:26:51.436Z,6.37
2023-03-27T08:27:53.199Z,6.44
2023-03-27T08:28:54.930Z,6.53
2023-03-27T08:29:56.647Z,6.6
2023-03-27T08:31:02.720Z,6.74
2023-03-27T08:32:00.127Z,6.9
2023-03-27T08:33:01.887Z,7.13
2023-03-27T08:34:03.598Z,7.27
2023-03-27T08:35:05.316Z,7.44
2023-03-27T08:36:09.238Z,7.6
2023-03-27T08:37:08.779Z,7.77
2023-03-27T08:38:23.756Z,7.89
2023-03-27T08:39:12.258Z,8.06
2023-03-27T08:40:13.989Z,8.17
2023-03-27T08:41:15.731Z,8.07
2023-03-27T08:42:19.088Z,7.99
2023-03-27T08:43:19.214Z,7.79
2023-03-27T08:44:20.213Z,7.74
2023-03-27T08:45:22.711Z,7.59
2023-03-27T08:46:24.432Z,7.57
2023-03-27T08:47:26.175Z,7.42
2023-03-27T08:48:27.847Z,7.18
2023-03-27T08:49:29.639Z,7
2023-03-27T08:50:31.293Z,6.83
2023-03-27T08:51:33.046Z,6.65
2023-03-27T08:52:34.823Z,6.43
2023-03-27T08:53:47.236Z,6.21
2023-03-27T08:54:51.537Z,5.93
2023-03-27T08:55:52.608Z,5.91
2023-03-27T08:56:56.538Z,5.93
2023-03-27T08:57:56.731Z,5.95
2023-03-27T08:58:58.489Z,5.98
2023-03-27T09:00:00.190Z,6.05
2023-03-27T09:01:01.954Z,6.13
2023-03-27T09:02:03.740Z,6.23
2023-03-27T09:03:05.536Z,6.37
2023-03-27T09:04:07.141Z,6.53
2023-03-27T09:05:08.849Z,6.69
2023-03-27T09:06:12.521Z,6.82
2023-03-27T09:07:17.466Z,6.96
2023-03-27T09:08:19.193Z,7.03
2023-03-27T09:09:20.899Z,7.11
2023-03-27T09:10:40.661Z,7.29
2023-03-27T09:11:49.441Z,7.32
2023-03-27T09:12:51.256Z,7.47
2023-03-27T09:13:53.687Z,7.6
2023-03-27T09:14:55.394Z,7.76
2023-03-27T09:15:57.380Z,7.89
2023-03-27T09:17:51.436Z,7.91
2023-03-27T09:18:56.233Z,7.81
2023-03-27T09:19:56.618Z,7.67
2023-03-27T09:20:59.548Z,7.57
2023-03-27T09:22:08.084Z,7.73
2023-03-27T09:23:09.845Z,7.8
2023-03-27T09:24:11.554Z,7.98
2023-03-27T09:25:33.618Z,8.24
2023-03-27T09:26:35.347Z,8.42
2023-03-27T09:27:37.070Z,8.63
2023-03-27T09:28:38.819Z,8.8
2023-03-27T09:29:40.550Z,9.01
2023-03-27T09:30:42.281Z,8.98
2023-03-27T09:31:44.057Z,9
2023-03-27T09:32:45.764Z,8.97
2023-03-27T09:33:47.460Z,8.89
2023-03-27T09:34:49.183Z,8.83
2023-03-27T09:35:50.949Z,8.73
2023-03-27T09:36:52.701Z,8.56
2023-03-27T09:37:54.418Z,8.49
2023-03-27T09:38:56.116Z,8.39
2023-03-27T09:39:57.876Z,8.3
2023-03-27T09:40:59.656Z,8.25
2023-03-27T09:42:06.699Z,8.15
2023-03-27T09:43:03.043Z,8.1
2023-03-27T09:44:04.845Z,8.01
2023-03-27T09:45:06.545Z,7.97
2023-03-27T09:46:08.284Z,7.93
2023-03-27T09:47:10.073Z,7.96
2023-03-27T09:48:11.755Z,7.98
2023-03-27T09:49:13.482Z,7.93
2023-03-27T09:50:15.275Z,7.86
2023-03-27T09:51:16.945Z,7.79
2023-03-27T09:52:18.652Z,7.76
2023-03-27T09:53:20.404Z,7.69
2023-03-27T09:54:22.112Z,7.58
2023-03-27T09:55:23.884Z,7.44
2023-03-27T09:56:25.589Z,7.13
2023-03-27T09:57:27.358Z,6.84
2023-03-27T09:58:29.076Z,6.52
2023-03-27T09:59:30.810Z,6.14
2023-03-27T10:00:32.538Z,5.83
2023-03-27T10:01:34.434Z,5.6
2023-03-27T10:02:36.091Z,5.25
2023-03-27T10:03:37.840Z,5.01
2023-03-27T10:04:39.542Z,4.82
2023-03-27T10:05:41.246Z,4.62
2023-03-27T10:06:42.927Z,4.4
2023-03-27T10:07:44.720Z,4.25
2023-03-27T10:08:46.418Z,4.2
2023-03-27T10:09:48.145Z,4.08
2023-03-27T10:10:49.897Z,4.07
2023-03-27T10:11:51.607Z,4.06
2023-03-27T10:12:53.324Z,4.04
2023-03-27T10:13:55.077Z,4.08
2023-03-27T10:14:56.826Z,4.14
2023-03-27T10:15:58.529Z,4.16
2023-03-27T10:17:00.478Z,4.15
2023-03-27T10:18:02.052Z,4.19
2023-03-27T10:19:03.773Z,4.17
2023-03-27T10:20:05.479Z,4.25
2023-03-27T10:21:07.214Z,4.26
2023-03-27T10:22:08.961Z,4.3
2023-03-27T10:23:10.697Z,4.4
2023-03-27T10:24:12.416Z,4.56
2023-03-27T10:25:14.132Z,4.66
2023-03-27T10:26:15.867Z,4.77
2023-03-27T10:27:17.599Z,4.86
2023-03-27T10:28:19.345Z,4.94
2023-03-27T10:29:21.078Z,5.04
2023-03-27T10:30:22.805Z,5.13
2023-03-27T10:31:24.615Z,5.3
2023-03-27T10:32:26.387Z,5.5
2023-03-27T10:33:28.016Z,5.75
2023-03-27T10:34:29.818Z,5.99
2023-03-27T10:35:31.514Z,6.16
2023-03-27T10:36:33.190Z,6.34
2023-03-27T10:37:34.919Z,6.56
2023-03-27T10:38:36.661Z,6.74
2023-03-27T10:39:38.398Z,6.95
2023-03-27T10:40:40.150Z,7.16
2023-03-27T10:41:41.888Z,7.39
2023-03-27T10:42:43.617Z,7.62
2023-03-27T10:43:45.351Z,7.79
2023-03-27T10:44:47.095Z,7.86
2023-03-27T10:45:48.855Z,7.85
2023-03-27T10:46:50.534Z,7.85
2023-03-27T10:47:52.354Z,7.83
2023-03-27T10:48:54.021Z,7.7
2023-03-27T10:49:55.760Z,7.55
2023-03-27T10:50:57.738Z,7.43
2023-03-27T10:51:59.215Z,7.36
2023-03-27T10:53:00.974Z,7.31
2023-03-27T10:54:02.747Z,7.2
2023-03-27T10:55:04.411Z,7.18
2023-03-27T10:56:06.152Z,7.15
2023-03-27T10:57:07.879Z,7.15
2023-03-27T10:58:09.598Z,7.16
2023-03-27T10:59:11.338Z,7.13
2023-03-27T11:00:13.096Z,7.15
2023-03-27T11:01:14.845Z,7.2
2023-03-27T11:02:16.579Z,7.16
2023-03-27T11:03:18.267Z,7.2
2023-03-27T11:04:20.108Z,7.25
2023-03-27T11:05:21.739Z,7.34
2023-03-27T11:06:23.476Z,7.39
2023-03-27T11:07:25.216Z,7.38
2023-03-27T11:08:26.957Z,7.33
2023-03-27T11:09:28.692Z,7.34
2023-03-27T11:10:30.397Z,7.27
2023-03-27T11:11:32.137Z,7.22
2023-03-27T11:12:33.864Z,7.24
2023-03-27T11:13:35.632Z,7.27
2023-03-27T11:14:37.369Z,7.17
2023-03-27T11:15:39.075Z,7.26
2023-03-27T11:16:40.835Z,7.3
2023-03-27T11:17:42.573Z,7.3
2023-03-27T11:18:44.317Z,7.27
2023-03-27T11:19:46.015Z,7.29
2023-03-27T11:20:47.719Z,7.32
2023-03-27T11:21:49.472Z,7.31
2023-03-27T11:22:51.228Z,7.39
2023-03-27T11:23:53.033Z,7.49
2023-03-27T11:24:54.683Z,7.67
2023-03-27T11:25:56.389Z,7.78
2023-03-27T11:26:58.134Z,7.86
2023-03-27T11:27:59.884Z,7.9
2023-03-27T11:29:01.597Z,7.94
2023-03-27T11:30:03.338Z,7.96
2023-03-27T11:31:12.347Z,7.97
2023-03-27T11:32:06.795Z,8.06
2023-03-27T11:33:08.558Z,8.1
2023-03-27T11:34:10.281Z,8.19
2023-03-27T11:35:12.016Z,8.2
2023-03-27T11:36:13.771Z,8.21
2023-03-27T11:37:15.550Z,8.2
2023-03-27T11:38:17.224Z,8.18
2023-03-27T11:39:18.944Z,8.12
2023-03-27T11:40:20.677Z,8.02
2023-03-27T11:41:22.401Z,8.14
2023-03-27T11:42:24.158Z,8.26
2023-03-27T11:43:25.886Z,8.18
2023-03-27T11:44:27.610Z,8.17
2023-03-27T11:45:29.357Z,8.16
2023-03-27T11:46:31.178Z,8.16
2023-03-27T11:47:32.829Z,8.04
2023-03-27T11:48:34.532Z,7.85
2023-03-27T11:49:36.278Z,7.76
2023-03-27T11:50:38.018Z,7.55
2023-03-27T11:51:39.749Z,7.37
2023-03-27T11:52:41.470Z,7.22
2023-03-27T11:53:43.227Z,7.13
2023-03-27T11:54:44.945Z,7.09
2023-03-27T11:55:46.670Z,7.13
2023-03-27T11:56:48.439Z,7.21
2023-03-27T11:57:50.128Z,7.3
2023-03-27T11:58:51.894Z,7.39
2023-03-27T11:59:53.633Z,7.42
2023-03-27T12:00:55.538Z,7.52
2023-03-27T12:01:57.091Z,7.62
2023-03-27T12:02:58.893Z,7.72
2023-03-27T12:04:00.707Z,7.83
2023-03-27T12:05:02.272Z,7.95
2023-03-27T12:06:04.016Z,8.06
2023-03-27T12:07:06.798Z,8.18
2023-03-27T12:08:07.479Z,8.34
2023-03-27T12:09:09.245Z,8.52
2023-03-27T12:10:10.945Z,8.69
2023-03-27T12:11:12.689Z,8.86
2023-03-27T12:12:14.397Z,8.9
2023-03-27T12:13:16.130Z,8.9
2023-03-27T12:14:18.893Z,8.61
2023-03-27T12:15:19.597Z,8.33
2023-03-27T12:16:21.415Z,8.16
2023-03-27T12:17:23.248Z,7.78
2023-03-27T12:18:27.493Z,7.36
2023-03-27T12:19:29.734Z,6.82
2023-03-27T12:20:28.591Z,6.39
2023-03-27T12:21:30.028Z,6.12
2023-03-27T12:22:31.740Z,5.96
2023-03-27T12:23:33.462Z,5.96
2023-03-27T12:24:35.226Z,5.98
2023-03-27T12:25:36.944Z,5.89
2023-03-27T12:26:38.687Z,5.75
2023-03-27T12:27:40.400Z,5.62
2023-03-27T12:28:42.136Z,5.42
2023-03-27T12:29:43.864Z,5.21
2023-03-27T12:30:45.598Z,5.1
2023-03-27T12:31:47.371Z,4.96
2023-03-27T12:32:49.082Z,4.88
2023-03-27T12:33:50.799Z,4.83
2023-03-27T12:34:52.569Z,4.78
2023-03-27T12:35:54.359Z,4.73
2023-03-27T12:36:56.005Z,4.71
2023-03-27T12:37:57.726Z,4.66
2023-03-27T12:38:59.461Z,4.76
2023-03-27T12:40:01.197Z,4.99
2023-03-27T12:41:03.013Z,5.34
2023-03-27T12:42:04.662Z,5.67
2023-03-27T12:43:06.430Z,6.06
2023-03-27T12:44:08.121Z,6.46
2023-03-27T12:45:09.875Z,6.88
2023-03-27T12:46:11.614Z,7.23
2023-03-27T12:47:13.353Z,7.66
2023-03-27T12:48:15.061Z,7.89
2023-03-27T12:49:16.792Z,8.17
2023-03-27T12:50:18.542Z,8.39
2023-03-27T12:51:20.252Z,8.62
2023-03-27T12:52:22.000Z,8.88
2023-03-27T12:53:23.733Z,9.07
2023-03-27T12:54:25.464Z,9.25
2023-03-27T12:55:27.209Z,9.49
2023-03-27T12:56:28.969Z,9.81
2023-03-27T12:57:30.760Z,10.01
2023-03-27T12:58:32.447Z,10.31
2023-03-27T12:59:34.127Z,10.44
2023-03-27T13:00:35.885Z,10.69
2023-03-27T13:01:49.071Z,10.85
2023-03-27T13:02:39.639Z,10.96
2023-03-27T13:03:41.175Z,11.05
2023-03-27T13:04:42.833Z,11.12
2023-03-27T13:05:44.552Z,11.2
2023-03-27T13:06:46.290Z,11.28
2023-03-27T13:07:48.051Z,11.3
2023-03-27T13:08:49.865Z,11.31
2023-03-27T13:09:51.485Z,11.32
2023-03-27T13:10:53.199Z,11.25
2023-03-27T13:11:54.955Z,11.19
2023-03-27T13:12:56.679Z,11.11
2023-03-27T13:13:58.409Z,11.08
2023-03-27T13:15:00.144Z,11.03
2023-03-27T13:16:01.911Z,11.02
2023-03-27T13:17:03.631Z,11.03
2023-03-27T13:18:05.446Z,10.95
2023-03-27T13:19:07.076Z,10.89
2023-03-27T13:20:08.813Z,10.87
2023-03-27T13:21:10.558Z,10.88
2023-03-27T13:22:12.286Z,10.95
2023-03-27T13:23:14.053Z,11.01
2023-03-27T13:24:15.751Z,11
2023-03-27T13:25:17.482Z,10.99
2023-03-27T13:26:19.215Z,11.05
2023-03-27T13:27:20.954Z,11.19
2023-03-27T13:28:22.718Z,11.36
2023-03-27T13:29:24.453Z,11.21
2023-03-27T13:30:26.145Z,11.02
2023-03-27T13:31:27.990Z,11.1
2023-03-27T13:32:29.644Z,11.13
2023-03-27T13:33:31.353Z,11.08
2023-03-27T13:34:33.104Z,11.11
2023-03-27T13:35:34.869Z,11.13
2023-03-27T13:36:36.555Z,10.96
2023-03-27T13:37:38.271Z,10.89
2023-03-27T13:38:40.074Z,10.89
2023-03-27T13:39:41.763Z,10.8
2023-03-27T13:40:43.475Z,10.74
2023-03-27T13:41:45.221Z,10.7
2023-03-27T13:42:46.941Z,10.69
2023-03-27T13:43:48.688Z,10.66
2023-03-27T13:44:50.417Z,10.66
2023-03-27T13:45:52.161Z,10.57
2023-03-27T13:46:53.941Z,10.43
2023-03-27T13:47:55.622Z,10.33
2023-03-27T13:48:57.368Z,10.24